Time;durP1;ratioP1;P1;durP2;ratioP2;P2;SDS_P1;SDS_P2;PMS_P1;PMS_P2;Temp;Humidity;BMP_temperature;BMP_pressure;BME280_temperature;BME280_humidity;BME280_pressure;Samples;Min_cycle;Max_cycle;Signal;HPM_P1;HPM_P2
2023/03/20 00:01:00;;;;;;;23.92;16.67;;;11.40;99.90;;;;;;4971224;28;20184;-68
2023/03/20 00:03:26;;;;;;;25.70;17.58;;;11.40;99.90;;;;;;4968308;28;20196;-65
2023/03/20 00:05:54;;;;;;;20.48;15.57;;;11.30;99.90;;;;;;4975334;28;20192;-68
2023/03/20 00:08:22;;;;;;;22.83;16.38;;;11.30;99.90;;;;;;4974500;28;20203;-67
2023/03/20 00:10:48;;;;;;;17.40;13.85;;;11.30;99.90;;;;;;4971209;28;20245;-69
2023/03/20 00:13:24;;;;;;;18.98;13.77;;;11.30;99.90;;;;;;4974586;28;20172;-68
2023/03/20 00:15:53;;;;;;;20.45;14.70;;;11.30;99.90;;;;;;4969618;28;20258;-68
2023/03/20 00:18:25;;;;;;;19.50;14.30;;;11.30;99.90;;;;;;4961703;28;20295;-68
2023/03/20 00:20:52;;;;;;;18.17;13.57;;;11.30;99.90;;;;;;4975078;28;20230;-68
2023/03/20 00:23:21;;;;;;;20.02;13.90;;;11.30;99.90;;;;;;4973752;28;20319;-65
2023/03/20 00:25:47;;;;;;;17.63;13.60;;;11.30;99.90;;;;;;4978691;28;20192;-66
2023/03/20 00:28:42;;;;;;;23.67;17.20;;;11.30;99.90;;;;;;4975122;28;20262;-67
2023/03/20 00:31:25;;;;;;;20.38;15.05;;;11.30;99.90;;;;;;4970681;28;20183;-66
2023/03/20 00:33:52;;;;;;;21.75;15.75;;;11.30;99.90;;;;;;4977282;28;20207;-68
2023/03/20 00:36:18;;;;;;;21.40;15.70;;;11.30;99.90;;;;;;4974297;28;20180;-68
2023/03/20 00:38:44;;;;;;;22.55;15.13;;;11.20;99.90;;;;;;4966962;28;20193;-67
2023/03/20 00:41:19;;;;;;;22.92;16.05;;;11.20;99.90;;;;;;4991619;28;20180;-68
2023/03/20 00:43:48;;;;;;;23.55;15.65;;;11.30;99.90;;;;;;4974329;28;20263;-65
2023/03/20 00:46:14;;;;;;;19.95;14.63;;;11.20;99.90;;;;;;4973887;28;20306;-68
2023/03/20 00:48:42;;;;;;;21.80;15.88;;;11.20;99.90;;;;;;4991601;28;20291;-63
2023/03/20 00:51:07;;;;;;;22.35;16.08;;;11.10;99.90;;;;;;5026122;23;20227;-68
2023/03/20 00:53:33;;;;;;;21.50;14.80;;;11.10;99.90;;;;;;4975065;28;20187;-69
2023/03/20 00:55:59;;;;;;;20.60;15.15;;;11.10;99.90;;;;;;4980395;28;20326;-68
2023/03/20 00:58:25;;;;;;;21.50;15.63;;;11.10;99.90;;;;;;4975383;28;20326;-68
2023/03/20 01:00:51;;;;;;;20.05;14.25;;;11.10;99.90;;;;;;4978919;28;20212;-68
2023/03/20 01:03:19;;;;;;;23.73;15.93;;;11.10;99.90;;;;;;4980679;28;20240;-67
2023/03/20 01:05:48;;;;;;;21.73;15.85;;;11.10;99.90;;;;;;4987204;28;20204;-68
2023/03/20 01:08:16;;;;;;;23.98;15.80;;;11.10;99.90;;;;;;4977942;28;20288;-68
2023/03/20 01:10:47;;;;;;;19.52;14.57;;;11.10;99.90;;;;;;4976154;28;20179;-68
2023/03/20 01:13:27;;;;;;;20.70;14.82;;;11.10;99.90;;;;;;4975249;28;20250;-68
2023/03/20 01:15:55;;;;;;;23.92;15.88;;;11.10;99.90;;;;;;4974656;28;20207;-68
2023/03/20 01:18:25;;;;;;;23.75;15.98;;;11.10;99.90;;;;;;4988941;28;20203;-67
2023/03/20 01:20:55;;;;;;;20.60;15.02;;;11.10;99.90;;;;;;4975078;28;20191;-65
2023/03/20 01:23:25;;;;;;;21.25;14.55;;;11.10;99.90;;;;;;4972397;28;20207;-69
2023/03/20 01:25:51;;;;;;;20.85;14.55;;;11.10;99.90;;;;;;4986530;28;20235;-64
2023/03/20 01:28:20;;;;;;;18.00;13.70;;;11.10;99.90;;;;;;4969691;28;20204;-67
2023/03/20 01:30:47;;;;;;;19.20;13.48;;;11.10;99.90;;;;;;4988160;28;20187;-63
2023/03/20 01:33:18;;;;;;;18.67;12.88;;;11.10;99.90;;;;;;4973918;28;20271;-68
2023/03/20 01:35:47;;;;;;;15.32;11.75;;;11.10;99.90;;;;;;4974546;28;20204;-64
2023/03/20 01:38:24;;;;;;;15.93;11.65;;;11.10;99.90;;;;;;4987208;28;20190;-69
2023/03/20 01:41:03;;;;;;;16.08;11.82;;;11.10;99.90;;;;;;4989195;28;20183;-66
2023/03/20 01:43:33;;;;;;;15.85;11.27;;;11.10;99.90;;;;;;4972283;28;20279;-68
2023/03/20 01:46:16;;;;;;;18.23;12.13;;;11.10;99.90;;;;;;4994283;28;20196;-66
2023/03/20 01:48:53;;;;;;;16.35;11.65;;;11.10;99.90;;;;;;4983791;28;20246;-64
2023/03/20 01:51:22;;;;;;;17.83;11.77;;;11.10;99.90;;;;;;4983658;28;20196;-67
2023/03/20 01:53:59;;;;;;;14.30;10.80;;;11.10;99.90;;;;;;4971874;28;20180;-65
2023/03/20 01:56:31;;;;;;;15.07;10.48;;;11.10;99.90;;;;;;4986236;28;20239;-67
2023/03/20 01:59:02;;;;;;;18.33;12.68;;;11.20;99.90;;;;;;4968661;28;20200;-68
2023/03/20 02:01:30;;;;;;;15.35;11.55;;;11.20;99.90;;;;;;4993511;28;20208;-69
2023/03/20 02:03:58;;;;;;;13.70;10.43;;;11.20;99.90;;;;;;4977948;28;20219;-67
2023/03/20 02:06:25;;;;;;;15.15;11.32;;;11.20;99.90;;;;;;4978587;28;20250;-68
2023/03/20 02:08:52;;;;;;;15.82;11.23;;;11.20;99.90;;;;;;4976605;28;20239;-69
2023/03/20 02:11:25;;;;;;;14.10;10.40;;;11.20;99.90;;;;;;4978399;28;20204;-69
2023/03/20 02:13:53;;;;;;;12.55;9.80;;;11.20;99.90;;;;;;4990426;28;20180;-68
2023/03/20 02:16:21;;;;;;;13.40;10.07;;;11.20;99.90;;;;;;4978932;28;20419;-68
2023/03/20 02:18:50;;;;;;;14.07;10.07;;;11.20;99.90;;;;;;4985755;28;20203;-68
2023/03/20 02:21:44;;;;;;;13.98;9.30;;;11.30;99.90;;;;;;4984030;28;20184;-64
2023/03/20 02:24:15;;;;;;;11.40;8.30;;;11.30;99.90;;;;;;4981105;28;20211;-67
2023/03/20 02:26:49;;;;;;;12.73;8.88;;;11.20;99.90;;;;;;4988672;28;20211;-66
2023/03/20 02:29:41;;;;;;;13.10;8.63;;;11.20;99.90;;;;;;4988202;28;20200;-66
2023/03/20 02:32:16;;;;;;;12.65;9.20;;;11.20;99.90;;;;;;4992372;28;20250;-69
2023/03/20 02:34:53;;;;;;;11.50;8.40;;;11.20;99.90;;;;;;4979738;28;20179;-68
2023/03/20 02:37:31;;;;;;;12.80;8.73;;;11.20;99.90;;;;;;4977227;28;20224;-68
2023/03/20 02:40:10;;;;;;;11.48;8.48;;;11.20;99.90;;;;;;4988877;28;20244;-65
2023/03/20 02:42:55;;;;;;;12.95;8.82;;;11.20;99.90;;;;;;4987490;28;20184;-65
2023/03/20 02:46:11;;;;;;;12.45;8.30;;;11.20;99.90;;;;;;4976171;28;20188;-66
2023/03/20 02:48:46;;;;;;;11.65;8.40;;;11.20;99.90;;;;;;4956118;28;20208;-69
2023/03/20 02:51:48;;;;;;;11.98;8.40;;;11.20;99.90;;;;;;4970626;28;20247;-69
2023/03/20 02:54:46;;;;;;;12.45;8.27;;;11.20;99.90;;;;;;4965941;28;20179;-68
2023/03/20 02:57:46;;;;;;;12.40;8.63;;;11.20;99.90;;;;;;4959057;28;20231;-65
2023/03/20 03:00:25;;;;;;;11.95;8.52;;;11.20;99.90;;;;;;4953148;28;20199;-65
2023/03/20 03:03:04;;;;;;;12.48;8.55;;;11.20;99.90;;;;;;4989627;28;20186;-65
2023/03/20 03:05:44;;;;;;;12.55;8.32;;;11.10;99.90;;;;;;4986123;28;20176;-65
2023/03/20 03:08:12;;;;;;;10.45;8.00;;;11.10;99.90;;;;;;4974392;28;20192;-65
2023/03/20 03:10:44;;;;;;;12.30;8.57;;;11.10;99.90;;;;;;4981403;28;20191;-65
2023/03/20 03:13:19;;;;;;;11.80;8.45;;;11.00;99.90;;;;;;4973567;28;20187;-65
2023/03/20 03:15:51;;;;;;;12.65;8.82;;;11.00;99.90;;;;;;4976298;28;20207;-65
2023/03/20 03:18:26;;;;;;;12.60;8.55;;;11.00;99.90;;;;;;4970062;28;20226;-65
2023/03/20 03:20:57;;;;;;;11.57;8.13;;;10.90;99.90;;;;;;4987485;28;20420;-65
2023/03/20 03:23:26;;;;;;;12.35;8.73;;;10.90;99.90;;;;;;4976193;28;20203;-65
2023/03/20 03:25:54;;;;;;;12.07;9.27;;;10.90;99.90;;;;;;4992560;28;20184;-65
2023/03/20 03:28:42;;;;;;;14.38;9.05;;;10.90;99.90;;;;;;4983225;28;20489;-65
2023/03/20 03:31:14;;;;;;;12.43;8.55;;;10.90;99.90;;;;;;4973526;28;20193;-65
2023/03/20 03:33:46;;;;;;;12.65;8.88;;;10.90;99.90;;;;;;4990362;28;20184;-65
2023/03/20 03:36:33;;;;;;;13.07;8.23;;;10.90;99.90;;;;;;4974553;28;20180;-65
2023/03/20 03:39:07;;;;;;;12.68;8.30;;;10.90;99.90;;;;;;4986666;28;20267;-65
2023/03/20 03:41:48;;;;;;;11.93;8.65;;;10.90;99.90;;;;;;4987888;28;20183;-65
2023/03/20 03:44:34;;;;;;;13.23;8.65;;;10.90;99.90;;;;;;4987939;28;20290;-65
2023/03/20 03:47:24;;;;;;;11.70;8.20;;;10.90;99.90;;;;;;4969236;28;20180;-65
2023/03/20 03:50:04;;;;;;;12.68;9.13;;;10.90;99.90;;;;;;4978967;28;20204;-65
2023/03/20 03:52:33;;;;;;;13.20;9.35;;;10.90;99.90;;;;;;4973247;28;20269;-65
2023/03/20 03:55:07;;;;;;;13.70;9.10;;;10.90;99.90;;;;;;4977489;28;20176;-65
2023/03/20 03:57:41;;;;;;;12.32;8.43;;;10.90;99.90;;;;;;4978864;28;20258;-66
2023/03/20 04:00:12;;;;;;;10.43;7.85;;;10.90;99.90;;;;;;4990759;28;20188;-65
2023/03/20 04:02:42;;;;;;;11.70;8.07;;;10.90;99.90;;;;;;4961469;28;20184;-65
2023/03/20 04:05:10;;;;;;;12.45;8.55;;;10.90;99.90;;;;;;4976232;28;20196;-65
2023/03/20 04:07:38;;;;;;;13.07;8.88;;;10.90;99.90;;;;;;4975309;28;20247;-65
2023/03/20 04:10:05;;;;;;;13.27;9.10;;;10.80;99.90;;;;;;4991892;28;20176;-65
2023/03/20 04:12:43;;;;;;;13.80;9.15;;;10.80;99.90;;;;;;4987992;28;20293;-64
2023/03/20 04:15:11;;;;;;;13.52;9.00;;;10.80;99.90;;;;;;4975887;28;20186;-65
2023/03/20 04:17:39;;;;;;;14.48;8.68;;;10.80;99.90;;;;;;4986186;28;20203;-65
2023/03/20 04:20:06;;;;;;;13.93;9.20;;;10.80;99.90;;;;;;4975548;28;20176;-65
2023/03/20 04:22:33;;;;;;;13.43;9.23;;;10.80;99.90;;;;;;4991997;28;20176;-64
2023/03/20 04:25:03;;;;;;;12.55;8.32;;;10.80;99.90;;;;;;4975789;28;20180;-66
2023/03/20 04:27:29;;;;;;;12.65;8.60;;;10.80;99.90;;;;;;4978051;28;20192;-64
2023/03/20 04:29:57;;;;;;;12.00;8.57;;;10.80;99.90;;;;;;4976125;28;20206;-65
2023/03/20 04:32:23;;;;;;;14.35;9.50;;;10.80;99.90;;;;;;4969084;28;20196;-65
2023/03/20 04:34:51;;;;;;;14.18;9.18;;;10.80;99.90;;;;;;4975904;28;20231;-65
2023/03/20 04:37:19;;;;;;;13.70;8.98;;;10.80;99.90;;;;;;4977592;28;20418;-65
2023/03/20 04:39:45;;;;;;;15.52;9.75;;;10.70;99.90;;;;;;4990117;28;20184;-65
2023/03/20 04:42:11;;;;;;;13.68;9.93;;;10.70;99.90;;;;;;4974823;28;20184;-65
2023/03/20 04:44:36;;;;;;;14.73;10.82;;;10.80;99.90;;;;;;4991183;28;20203;-65
2023/03/20 04:47:02;;;;;;;15.85;10.75;;;10.70;99.90;;;;;;4988018;28;20196;-65
2023/03/20 04:49:28;;;;;;;14.70;10.30;;;10.80;99.90;;;;;;4989189;28;20211;-65
2023/03/20 04:51:56;;;;;;;16.50;11.32;;;10.70;99.90;;;;;;4971698;28;20211;-65
2023/03/20 04:54:24;;;;;;;14.55;9.38;;;10.70;99.90;;;;;;4992652;28;20195;-66
2023/03/20 04:56:50;;;;;;;15.27;10.18;;;10.70;99.90;;;;;;4989026;28;20182;-65
2023/03/20 04:59:15;;;;;;;12.15;9.70;;;10.70;99.90;;;;;;4991190;28;20180;-65
2023/03/20 05:01:43;;;;;;;13.05;9.30;;;10.70;99.90;;;;;;4990289;28;20200;-65
2023/03/20 05:04:11;;;;;;;13.13;8.70;;;10.60;99.90;;;;;;4980248;28;22220;-65
2023/03/20 05:06:37;;;;;;;15.13;10.07;;;10.60;99.90;;;;;;4983395;28;20210;-65
2023/03/20 05:09:05;;;;;;;13.00;9.15;;;10.60;99.90;;;;;;4974526;28;20227;-65
2023/03/20 05:11:33;;;;;;;13.20;9.30;;;10.60;99.90;;;;;;4978628;28;20192;-65
2023/03/20 05:14:01;;;;;;;11.90;9.10;;;10.60;99.90;;;;;;4993824;28;20183;-65
2023/03/20 05:16:29;;;;;;;12.38;9.05;;;10.50;99.90;;;;;;4974255;28;20203;-65
2023/03/20 05:18:54;;;;;;;14.02;9.15;;;10.50;99.90;;;;;;4979301;28;20286;-64
2023/03/20 05:21:22;;;;;;;14.27;9.02;;;10.50;99.90;;;;;;4977299;28;20414;-65
2023/03/20 05:23:48;;;;;;;11.13;8.43;;;10.50;99.90;;;;;;4982189;28;20341;-65
2023/03/20 05:26:13;;;;;;;11.33;8.27;;;10.50;99.90;;;;;;4977855;28;20199;-65
2023/03/20 05:28:41;;;;;;;13.77;9.30;;;10.50;99.90;;;;;;4995458;28;20226;-64
2023/03/20 05:31:09;;;;;;;12.95;8.77;;;10.50;99.90;;;;;;4997298;28;20175;-65
2023/03/20 05:33:35;;;;;;;11.70;8.82;;;10.50;99.90;;;;;;4994331;28;20254;-65
2023/03/20 05:36:01;;;;;;;11.30;8.02;;;10.40;99.90;;;;;;4975255;28;20185;-66
2023/03/20 05:38:27;;;;;;;13.67;9.17;;;10.40;99.90;;;;;;4977688;28;20279;-65
2023/03/20 05:41:04;;;;;;;11.93;8.77;;;10.30;99.90;;;;;;4977518;28;20211;-66
2023/03/20 05:43:30;;;;;;;11.02;8.48;;;10.30;99.90;;;;;;4986318;28;20184;-65
2023/03/20 05:45:56;;;;;;;11.83;8.60;;;10.30;99.90;;;;;;4985365;28;20176;-65
2023/03/20 05:48:25;;;;;;;13.20;8.50;;;10.30;99.90;;;;;;4985436;28;20200;-66
2023/03/20 05:50:52;;;;;;;11.10;8.23;;;10.30;99.90;;;;;;4973712;28;20192;-65
2023/03/20 05:53:18;;;;;;;10.80;8.27;;;10.20;99.90;;;;;;4975423;28;20180;-65
2023/03/20 05:55:44;;;;;;;12.35;8.32;;;10.20;99.90;;;;;;4991737;28;20234;-65
2023/03/20 05:58:13;;;;;;;13.90;8.53;;;10.20;99.90;;;;;;4991061;28;20191;-66
2023/03/20 06:00:39;;;;;;;13.70;8.80;;;10.20;99.90;;;;;;4993928;28;20184;-65
2023/03/20 06:03:05;;;;;;;14.83;9.17;;;10.20;99.90;;;;;;4979022;28;20188;-64
2023/03/20 06:05:32;;;;;;;11.45;8.57;;;10.20;99.90;;;;;;4970357;28;20192;-65
2023/03/20 06:08:05;;;;;;;12.18;9.07;;;10.20;99.90;;;;;;4994159;28;20216;-65
2023/03/20 06:10:33;;;;;;;12.53;9.07;;;10.20;99.90;;;;;;4990130;28;20267;-65
2023/03/20 06:13:01;;;;;;;10.68;7.82;;;10.20;99.90;;;;;;4958744;29;20180;-65
2023/03/20 06:15:27;;;;;;;10.60;8.23;;;10.20;99.90;;;;;;4975888;28;20219;-65
2023/03/20 06:17:54;;;;;;;11.98;8.52;;;10.20;99.90;;;;;;4977352;28;20207;-66
2023/03/20 06:20:23;;;;;;;12.30;8.57;;;10.20;99.90;;;;;;4992930;28;20195;-66
2023/03/20 06:22:51;;;;;;;12.35;8.45;;;10.20;99.90;;;;;;4993224;28;20203;-66
2023/03/20 06:25:18;;;;;;;12.13;8.77;;;10.20;99.90;;;;;;4993318;28;20187;-66
2023/03/20 06:27:46;;;;;;;11.77;8.67;;;10.20;99.90;;;;;;4993510;28;20188;-66
2023/03/20 06:30:13;;;;;;;13.30;8.57;;;10.20;99.90;;;;;;4962655;28;20192;-67
2023/03/20 06:32:39;;;;;;;11.90;8.83;;;10.20;99.90;;;;;;4978801;28;20212;-66
2023/03/20 06:35:06;;;;;;;13.45;8.95;;;10.20;99.90;;;;;;4980593;28;20180;-65
2023/03/20 06:37:32;;;;;;;12.88;8.70;;;10.20;99.90;;;;;;4990086;28;20280;-66
2023/03/20 06:39:58;;;;;;;13.32;8.95;;;10.20;99.90;;;;;;4975792;28;20183;-66
2023/03/20 06:42:24;;;;;;;12.25;8.93;;;10.20;99.90;;;;;;4992519;28;20196;-66
2023/03/20 06:44:52;;;;;;;12.98;8.57;;;10.20;99.90;;;;;;4992261;28;20200;-67
2023/03/20 06:47:17;;;;;;;12.52;8.63;;;10.20;99.90;;;;;;4979981;28;20199;-65
2023/03/20 06:49:43;;;;;;;12.38;9.07;;;10.20;99.90;;;;;;4976641;28;20238;-66
2023/03/20 06:52:22;;;;;;;13.88;9.18;;;10.30;99.90;;;;;;4976999;28;20188;-66
2023/03/20 06:54:47;;;;;;;11.45;8.63;;;10.30;99.90;;;;;;4990283;28;20281;-67
2023/03/20 06:57:13;;;;;;;12.05;8.90;;;10.30;99.90;;;;;;4977659;28;20180;-66
2023/03/20 06:59:39;;;;;;;13.20;9.10;;;10.30;99.90;;;;;;4986684;28;20276;-67
2023/03/20 07:02:04;;;;;;;11.38;8.43;;;10.30;99.90;;;;;;4976268;28;20207;-66
2023/03/20 07:04:30;;;;;;;12.50;8.68;;;10.30;99.90;;;;;;4985553;28;20234;-66
2023/03/20 07:06:56;;;;;;;10.30;7.63;;;10.40;99.90;;;;;;4976908;28;20207;-66
2023/03/20 07:09:24;;;;;;;12.18;8.35;;;10.40;99.90;;;;;;4968249;28;20212;-66
2023/03/20 07:11:50;;;;;;;10.80;7.70;;;10.40;99.90;;;;;;4977149;28;20180;-66
2023/03/20 07:14:15;;;;;;;12.02;7.85;;;10.40;99.90;;;;;;4979548;28;20180;-66
2023/03/20 07:16:41;;;;;;;11.77;7.82;;;10.40;99.90;;;;;;4979391;28;20203;-66
2023/03/20 07:19:07;;;;;;;13.82;7.47;;;10.50;99.90;;;;;;4976060;28;20267;-66
2023/03/20 07:21:36;;;;;;;11.30;8.25;;;10.50;99.90;;;;;;4977278;28;20215;-65
2023/03/20 07:24:02;;;;;;;12.48;8.88;;;10.50;99.90;;;;;;4995232;28;20206;-66
2023/03/20 07:26:27;;;;;;;12.18;8.18;;;10.50;99.90;;;;;;4985052;28;20465;-66
2023/03/20 07:28:53;;;;;;;9.95;7.40;;;10.50;99.90;;;;;;4971185;28;20212;-67
2023/03/20 07:31:25;;;;;;;10.63;7.45;;;10.60;99.90;;;;;;4991011;28;20180;-65
2023/03/20 07:33:51;;;;;;;10.45;7.72;;;10.60;99.90;;;;;;4992182;28;20249;-67
2023/03/20 07:36:17;;;;;;;11.25;8.70;;;10.70;99.90;;;;;;4998292;28;20184;-65
2023/03/20 07:38:45;;;;;;;11.18;7.90;;;10.70;99.90;;;;;;4976092;28;20187;-64
2023/03/20 07:41:10;;;;;;;12.10;8.23;;;10.80;99.90;;;;;;4990973;28;20180;-66
2023/03/20 07:43:41;;;;;;;12.15;7.78;;;10.80;99.90;;;;;;4976233;28;20179;-67
2023/03/20 07:46:08;;;;;;;12.75;7.90;;;10.90;99.90;;;;;;4976452;28;20195;-65
2023/03/20 07:48:34;;;;;;;13.18;7.18;;;11.00;99.90;;;;;;4975931;28;20200;-66
2023/03/20 07:51:00;;;;;;;9.20;6.90;;;11.00;99.90;;;;;;4989567;28;20279;-66
2023/03/20 07:53:29;;;;;;;11.10;7.50;;;11.10;99.90;;;;;;4991988;28;20273;-66
2023/03/20 07:55:54;;;;;;;9.27;6.72;;;11.20;99.90;;;;;;4992900;28;20193;-65
2023/03/20 07:58:20;;;;;;;10.82;7.80;;;11.10;99.90;;;;;;4975377;28;20192;-66
2023/03/20 08:00:50;;;;;;;9.10;6.57;;;11.30;99.90;;;;;;4982071;28;20424;-66
2023/03/20 08:03:16;;;;;;;8.82;6.80;;;11.20;99.90;;;;;;4982249;28;20180;-66
2023/03/20 08:05:42;;;;;;;9.43;7.20;;;11.30;99.90;;;;;;4991180;28;20180;-65
2023/03/20 08:08:08;;;;;;;9.18;6.65;;;11.30;99.90;;;;;;4976015;28;20208;-66
2023/03/20 08:10:36;;;;;;;9.15;7.00;;;11.30;99.90;;;;;;4975529;28;20187;-66
2023/03/20 08:13:04;;;;;;;8.07;6.15;;;11.30;99.90;;;;;;4975870;28;20175;-65
2023/03/20 08:15:29;;;;;;;8.48;7.00;;;11.40;99.90;;;;;;4975695;28;20196;-66
2023/03/20 08:17:57;;;;;;;8.50;6.10;;;11.40;99.90;;;;;;4988841;28;20196;-65
2023/03/20 08:20:23;;;;;;;7.88;6.35;;;11.40;99.90;;;;;;4975328;28;20203;-65
2023/03/20 08:22:52;;;;;;;7.63;6.43;;;11.40;99.90;;;;;;4975210;28;20187;-66
2023/03/20 08:25:17;;;;;;;9.48;6.57;;;11.40;99.90;;;;;;4975477;28;20194;-65
2023/03/20 08:27:43;;;;;;;7.25;6.28;;;11.40;99.90;;;;;;4991333;28;20184;-65
2023/03/20 08:30:09;;;;;;;8.48;6.32;;;11.50;99.90;;;;;;4988391;28;20185;-65
2023/03/20 08:32:35;;;;;;;7.35;5.82;;;11.40;99.90;;;;;;4975253;28;20200;-66
2023/03/20 08:35:01;;;;;;;8.30;6.35;;;11.40;99.90;;;;;;4974816;28;20183;-66
2023/03/20 08:37:27;;;;;;;7.05;5.57;;;11.50;99.90;;;;;;4991406;28;20176;-65
2023/03/20 08:39:52;;;;;;;6.97;5.32;;;11.50;99.90;;;;;;4975153;28;20184;-66
2023/03/20 08:42:18;;;;;;;7.22;5.70;;;11.50;99.90;;;;;;4978121;28;20215;-65
2023/03/20 08:44:47;;;;;;;7.53;5.68;;;11.50;99.90;;;;;;4974975;28;20280;-65
2023/03/20 08:47:15;;;;;;;7.15;5.45;;;11.50;99.90;;;;;;4991771;28;20338;-66
2023/03/20 08:49:42;;;;;;;7.75;5.70;;;11.50;99.90;;;;;;4975493;28;20207;-66
2023/03/20 08:52:10;;;;;;;6.13;5.15;;;11.60;99.90;;;;;;4988834;28;20246;-66
2023/03/20 08:54:40;;;;;;;7.00;5.15;;;11.50;99.90;;;;;;4975337;28;20176;-65
2023/03/20 08:57:05;;;;;;;5.95;4.65;;;11.50;99.90;;;;;;4974714;28;20196;-65
2023/03/20 08:59:34;;;;;;;5.95;4.10;;;11.50;99.90;;;;;;4976388;28;20230;-65
2023/03/20 09:02:00;;;;;;;4.10;3.50;;;11.50;99.90;;;;;;4990967;28;20188;-65
2023/03/20 09:04:28;;;;;;;5.47;3.83;;;11.50;99.90;;;;;;4998891;28;20190;-65
2023/03/20 09:06:56;;;;;;;6.25;4.05;;;11.50;99.90;;;;;;4986191;28;20247;-66
2023/03/20 09:09:28;;;;;;;4.70;3.70;;;11.70;99.90;;;;;;4968412;28;20208;-66
2023/03/20 09:11:57;;;;;;;4.47;3.47;;;11.60;99.90;;;;;;4987221;28;20180;-65
2023/03/20 09:14:24;;;;;;;4.53;3.30;;;11.70;99.90;;;;;;4974534;28;20232;-65
2023/03/20 09:16:55;;;;;;;4.43;3.20;;;11.70;99.90;;;;;;4991355;28;20176;-65
2023/03/20 09:19:23;;;;;;;4.40;3.15;;;11.70;99.90;;;;;;4986707;28;20191;-65
2023/03/20 09:21:48;;;;;;;5.05;3.28;;;11.70;99.90;;;;;;4980468;28;20210;-66
2023/03/20 09:24:16;;;;;;;4.82;3.30;;;11.80;99.90;;;;;;4974626;28;20270;-66
2023/03/20 09:26:42;;;;;;;4.70;3.20;;;11.80;99.90;;;;;;4975057;28;20230;-66
2023/03/20 09:29:07;;;;;;;4.28;3.15;;;11.90;99.90;;;;;;4974332;28;20224;-66
2023/03/20 09:31:33;;;;;;;4.15;3.22;;;12.00;99.90;;;;;;4991259;28;20236;-66
2023/03/20 09:33:59;;;;;;;4.90;2.90;;;12.00;99.90;;;;;;4976111;28;20211;-66
2023/03/20 09:36:27;;;;;;;3.17;2.67;;;12.00;99.90;;;;;;4990746;28;20172;-67
2023/03/20 09:38:52;;;;;;;3.67;2.97;;;12.10;99.90;;;;;;4975068;28;20191;-66
2023/03/20 09:41:18;;;;;;;4.18;3.30;;;12.20;99.90;;;;;;4974114;28;20192;-66
2023/03/20 09:44:09;;;;;;;3.78;3.15;;;12.20;99.90;;;;;;4990735;28;20195;-65
2023/03/20 09:46:49;;;;;;;5.32;3.05;;;12.20;99.90;;;;;;4987987;28;20203;-66
2023/03/20 09:49:33;;;;;;;5.50;3.85;;;12.30;99.90;;;;;;4970579;28;20298;-66
2023/03/20 09:52:03;;;;;;;4.72;3.28;;;12.30;99.90;;;;;;4978898;28;20189;-66
2023/03/20 09:54:44;;;;;;;4.22;3.50;;;12.40;99.90;;;;;;4965395;28;20223;-66
2023/03/20 09:57:29;;;;;;;5.15;3.78;;;12.40;99.90;;;;;;4974646;28;20241;-66
2023/03/20 10:00:03;;;;;;;6.00;4.40;;;12.40;99.90;;;;;;4990703;28;20279;-66
2023/03/20 10:02:48;;;;;;;4.97;3.67;;;12.40;99.90;;;;;;4974583;28;20226;-66
2023/03/20 10:05:23;;;;;;;5.10;3.55;;;12.30;99.90;;;;;;4984851;28;20215;-66
2023/03/20 10:07:49;;;;;;;5.72;4.18;;;12.30;99.90;;;;;;4994105;28;20172;-66
2023/03/20 10:10:19;;;;;;;4.85;3.65;;;12.30;99.90;;;;;;4994185;28;20587;-66
2023/03/20 10:12:44;;;;;;;6.38;4.13;;;12.30;99.90;;;;;;4977672;28;20187;-66
2023/03/20 10:15:23;;;;;;;5.50;3.63;;;12.40;99.90;;;;;;4994057;28;20172;-66
2023/03/20 10:18:06;;;;;;;4.45;3.67;;;12.30;99.90;;;;;;4994317;28;20171;-66
2023/03/20 10:20:34;;;;;;;4.40;3.92;;;12.40;99.90;;;;;;4993647;28;20183;-66
2023/03/20 10:23:12;;;;;;;6.38;4.57;;;12.40;99.90;;;;;;4991641;28;20196;-66
2023/03/20 10:25:47;;;;;;;5.97;4.32;;;12.40;99.90;;;;;;4966142;28;20495;-66
2023/03/20 10:28:49;;;;;;;7.50;4.53;;;12.40;99.90;;;;;;4993452;28;20217;-66
2023/03/20 10:31:32;;;;;;;4.70;3.90;;;12.40;99.90;;;;;;4981581;28;20192;-67
2023/03/20 10:34:07;;;;;;;6.10;3.92;;;12.30;99.90;;;;;;4976631;28;20168;-65
2023/03/20 10:36:54;;;;;;;4.85;3.72;;;12.30;99.90;;;;;;4993416;28;20176;-66
2023/03/20 10:39:31;;;;;;;5.35;3.95;;;12.30;99.90;;;;;;4993071;28;20255;-65
2023/03/20 10:42:01;;;;;;;5.45;4.00;;;12.30;99.90;;;;;;4992735;28;20184;-66
2023/03/20 10:44:35;;;;;;;4.50;3.50;;;12.40;99.90;;;;;;4977088;28;20176;-65
2023/03/20 10:47:09;;;;;;;4.60;3.30;;;12.40;99.90;;;;;;4964090;28;20176;-66
2023/03/20 10:49:39;;;;;;;4.82;3.80;;;12.40;99.90;;;;;;4976221;28;20211;-66
2023/03/20 10:52:14;;;;;;;5.78;3.90;;;12.50;99.90;;;;;;4973265;28;20188;-66
2023/03/20 10:54:44;;;;;;;5.93;3.60;;;12.50;99.90;;;;;;4992862;28;20262;-66
2023/03/20 10:57:17;;;;;;;6.57;4.07;;;12.60;99.90;;;;;;4991604;28;20176;-66
2023/03/20 10:59:49;;;;;;;6.13;4.15;;;12.70;99.90;;;;;;4989534;28;20284;-66
2023/03/20 11:02:18;;;;;;;5.18;4.05;;;12.70;99.90;;;;;;4976899;28;20234;-66
2023/03/20 11:04:44;;;;;;;5.07;4.13;;;12.70;99.90;;;;;;4993384;28;20302;-68
2023/03/20 11:07:22;;;;;;;4.93;3.92;;;12.70;99.90;;;;;;4977132;28;20291;-69
2023/03/20 11:10:10;;;;;;;4.55;3.70;;;12.60;99.90;;;;;;4992292;28;20285;-65
2023/03/20 11:12:39;;;;;;;5.30;3.20;;;12.70;99.90;;;;;;4976459;28;20192;-67
2023/03/20 11:15:29;;;;;;;5.03;3.10;;;12.70;99.90;;;;;;4989310;28;20192;-68
2023/03/20 11:17:59;;;;;;;5.10;3.28;;;12.70;99.90;;;;;;4975619;28;20223;-69
2023/03/20 11:20:32;;;;;;;5.25;3.38;;;12.60;99.90;;;;;;4975899;28;20238;-68
2023/03/20 11:23:05;;;;;;;4.88;3.05;;;12.70;99.90;;;;;;4969249;28;20211;-69
2023/03/20 11:25:43;;;;;;;4.32;3.13;;;12.60;99.90;;;;;;4989322;28;20274;-70
2023/03/20 11:28:39;;;;;;;4.75;3.22;;;12.60;99.90;;;;;;4975406;28;20195;-65
2023/03/20 11:31:10;;;;;;;4.13;3.30;;;12.70;99.90;;;;;;4976519;28;20184;-67
2023/03/20 11:34:06;;;;;;;5.32;3.20;;;12.60;99.90;;;;;;4992233;28;20208;-69
2023/03/20 11:36:36;;;;;;;4.78;3.20;;;12.70;99.90;;;;;;4991434;28;20219;-69
2023/03/20 11:39:14;;;;;;;4.68;3.38;;;12.70;99.90;;;;;;4992221;28;20473;-69
2023/03/20 11:41:49;;;;;;;3.88;3.28;;;12.70;99.90;;;;;;4976017;28;20168;-68
2023/03/20 11:44:23;;;;;;;6.25;3.00;;;12.70;99.90;;;;;;4975870;28;20184;-68
2023/03/20 11:47:11;;;;;;;3.97;2.50;;;12.60;99.90;;;;;;4991914;28;20238;-66
2023/03/20 11:49:49;;;;;;;3.53;2.60;;;12.60;99.90;;;;;;4991919;28;20207;-69
2023/03/20 11:52:20;;;;;;;4.75;2.75;;;12.60;99.90;;;;;;4975324;28;20198;-61
2023/03/20 11:54:51;;;;;;;4.25;2.65;;;12.60;99.90;;;;;;4987464;28;20219;-69
2023/03/20 11:57:36;;;;;;;3.33;2.40;;;12.50;99.90;;;;;;4991901;28;20203;-66
2023/03/20 12:00:24;;;;;;;3.72;2.30;;;12.40;99.90;;;;;;4991590;28;20187;-67
2023/03/20 12:02:52;;;;;;;3.83;2.40;;;12.40;99.90;;;;;;4974588;28;20195;-64
2023/03/20 12:05:28;;;;;;;3.03;2.13;;;12.40;99.90;;;;;;4975273;28;20176;-68
2023/03/20 12:08:01;;;;;;;2.75;1.83;;;12.40;99.90;;;;;;4990373;28;20180;-69
2023/03/20 12:10:35;;;;;;;2.42;1.90;;;12.40;99.90;;;;;;4991197;28;20300;-68
2023/03/20 12:13:28;;;;;;;1.98;1.67;;;12.40;99.90;;;;;;4975004;28;20234;-62
2023/03/20 12:16:04;;;;;;;2.70;2.10;;;12.40;99.90;;;;;;4990838;28;20204;-66
2023/03/20 12:18:42;;;;;;;3.90;1.98;;;12.50;99.90;;;;;;4991849;28;20182;-68
2023/03/20 12:21:16;;;;;;;4.68;1.90;;;12.60;99.90;;;;;;4991209;28;20176;-69
2023/03/20 12:24:04;;;;;;;3.30;1.42;;;12.60;99.90;;;;;;4975125;28;20176;-65
2023/03/20 12:27:07;;;;;;;4.38;1.70;;;12.60;99.90;;;;;;4985482;28;20262;-69
2023/03/20 12:29:46;;;;;;;3.63;1.73;;;12.60;99.90;;;;;;4986491;28;20196;-69
2023/03/20 12:32:26;;;;;;;3.45;1.50;;;12.70;99.90;;;;;;4991229;28;20174;-64
2023/03/20 12:35:18;;;;;;;3.40;1.77;;;12.60;99.90;;;;;;4976926;28;20178;-67
2023/03/20 12:37:46;;;;;;;2.03;1.45;;;12.60;99.90;;;;;;4991055;28;20207;-69
2023/03/20 12:40:15;;;;;;;3.42;1.45;;;12.60;99.90;;;;;;4991157;28;20175;-68
2023/03/20 12:42:53;;;;;;;3.10;1.20;;;12.70;99.90;;;;;;4974862;28;20207;-67
2023/03/20 12:45:22;;;;;;;4.00;1.30;;;12.70;99.90;;;;;;4971856;28;20185;-67
2023/03/20 12:48:05;;;;;;;2.00;1.38;;;12.80;99.90;;;;;;4991040;28;20278;-65
2023/03/20 12:50:42;;;;;;;2.80;1.10;;;12.80;99.90;;;;;;4990848;28;20203;-67
2023/03/20 12:53:29;;;;;;;3.05;1.30;;;12.80;99.90;;;;;;4978316;28;20196;-69
2023/03/20 12:56:06;;;;;;;2.33;1.40;;;12.80;99.90;;;;;;4986873;28;20202;-67
2023/03/20 12:58:47;;;;;;;3.95;1.30;;;12.80;99.90;;;;;;4991490;28;20188;-68
2023/03/20 13:01:16;;;;;;;2.55;1.10;;;12.80;99.90;;;;;;4975021;28;20196;-68